Time;durP1;ratioP1;P1;durP2;ratioP2;P2;SDS_P1;SDS_P2;PMS_P1;PMS_P2;Temp;Humidity;BMP_temperature;BMP_pressure;BME280_temperature;BME280_humidity;BME280_pressure;Samples;Min_cycle;Max_cycle;Signal;HPM_P1;HPM_P2
2023/04/09 00:01:24;;;;;;;41.25;26.70;;;;;;;;;;5073869;28;20113;-72
2023/04/09 00:03:50;;;;;;;54.65;34.00;;;;;;;;;;5069537;28;20550;-72
2023/04/09 00:06:17;;;;;;;47.83;30.73;;;;;;;;;;5083870;28;20046;-72
2023/04/09 00:08:43;;;;;;;54.33;34.97;;;;;;;;;;5089524;28;20047;-72
2023/04/09 00:11:10;;;;;;;49.53;30.25;;;;;;;;;;5089348;28;20048;-72
2023/04/09 00:13:36;;;;;;;41.85;27.73;;;;;;;;;;5089402;28;20142;-72
2023/04/09 00:16:02;;;;;;;35.20;23.50;;;;;;;;;;5079861;28;20045;-72
2023/04/09 00:18:28;;;;;;;43.35;27.45;;;;;;;;;;5084361;28;20055;-72
2023/04/09 00:20:54;;;;;;;41.72;28.05;;;;;;;;;;5085748;28;20044;-72
2023/04/09 00:23:20;;;;;;;47.65;31.15;;;;;;;;;;5079607;28;20068;-72
2023/04/09 00:25:46;;;;;;;40.47;26.63;;;;;;;;;;5068975;28;20044;-71
2023/04/09 00:28:12;;;;;;;33.90;23.23;;;;;;;;;;5071255;28;20052;-71
2023/04/09 00:30:38;;;;;;;34.65;24.02;;;;;;;;;;5087512;28;20124;-71
2023/04/09 00:33:04;;;;;;;29.75;20.60;;;;;;;;;;5083958;28;20046;-72
2023/04/09 00:35:30;;;;;;;31.60;20.90;;;;;;;;;;5088246;28;20075;-72
2023/04/09 00:37:56;;;;;;;37.97;25.23;;;;;;;;;;5086611;28;20089;-72
2023/04/09 00:40:22;;;;;;;33.30;23.05;;;;;;;;;;5071265;28;20041;-72
2023/04/09 00:42:49;;;;;;;35.03;23.05;;;;;;;;;;5071061;28;20076;-73
2023/04/09 00:45:15;;;;;;;36.67;24.98;;;;;;;;;;5079736;28;20470;-72
2023/04/09 00:47:44;;;;;;;32.83;23.50;;;;;;;;;;5069166;28;20045;-71
2023/04/09 00:50:10;;;;;;;31.77;21.38;;;;;;;;;;5052531;28;20147;-71
2023/04/09 00:52:37;;;;;;;37.92;25.30;;;;;;;;;;5068193;28;20056;-71
2023/04/09 00:55:05;;;;;;;41.45;26.60;;;;;;;;;;5069076;28;20524;-71
2023/04/09 00:57:31;;;;;;;40.78;26.17;;;;;;;;;;5080109;28;20048;-71
2023/04/09 00:59:58;;;;;;;38.95;25.95;;;;;;;;;;5061106;28;20044;-71
2023/04/09 01:02:24;;;;;;;33.47;21.90;;;;;;;;;;5055510;28;20052;-71
2023/04/09 01:04:50;;;;;;;33.05;21.45;;;;;;;;;;5057211;28;20127;-71
2023/04/09 01:07:19;;;;;;;37.42;22.83;;;;;;;;;;5085718;28;20055;-71
2023/04/09 01:09:51;;;;;;;30.80;20.65;;;;;;;;;;5072157;28;20048;-71
2023/04/09 01:12:32;;;;;;;24.98;17.83;;;;;;;;;;5085720;28;20518;-71
2023/04/09 01:15:03;;;;;;;22.33;15.38;;;;;;;;;;5091501;28;20059;-71
2023/04/09 01:17:29;;;;;;;22.98;16.05;;;;;;;;;;5089081;28;20048;-71
2023/04/09 01:20:01;;;;;;;20.92;15.45;;;;;;;;;;5065123;28;20465;-71
2023/04/09 01:22:27;;;;;;;25.50;16.40;;;;;;;;;;5075519;28;20054;-71
2023/04/09 01:24:53;;;;;;;20.88;14.80;;;;;;;;;;5083450;28;20040;-71
2023/04/09 01:27:20;;;;;;;16.48;12.00;;;;;;;;;;5075764;28;20052;-71
2023/04/09 01:29:46;;;;;;;18.73;13.55;;;;;;;;;;5092321;28;20147;-71
2023/04/09 01:32:13;;;;;;;18.73;12.77;;;;;;;;;;5068138;28;20083;-71
2023/04/09 01:34:40;;;;;;;17.92;12.75;;;;;;;;;;5055641;28;20059;-71
2023/04/09 01:37:08;;;;;;;16.02;11.10;;;;;;;;;;5072026;28;20117;-71
2023/04/09 01:39:34;;;;;;;12.20;9.23;;;;;;;;;;5071746;28;20554;-71
2023/04/09 01:42:02;;;;;;;17.60;11.38;;;;;;;;;;5071821;28;20151;-71
2023/04/09 01:44:29;;;;;;;20.20;13.68;;;;;;;;;;5076426;28;20048;-71
2023/04/09 01:46:56;;;;;;;18.05;12.15;;;;;;;;;;5072007;28;20094;-71
2023/04/09 01:49:22;;;;;;;17.42;12.30;;;;;;;;;;5071685;28;20082;-71
2023/04/09 01:51:48;;;;;;;14.50;10.23;;;;;;;;;;5072916;28;20137;-72
2023/04/09 01:54:15;;;;;;;13.38;10.07;;;;;;;;;;5071838;28;20040;-72
2023/04/09 01:56:41;;;;;;;11.43;8.23;;;;;;;;;;5071944;28;20559;-72
2023/04/09 01:59:07;;;;;;;11.25;8.00;;;;;;;;;;5071671;28;20059;-72
2023/04/09 02:01:37;;;;;;;10.48;7.53;;;;;;;;;;5072031;28;20044;-72
2023/04/09 02:04:04;;;;;;;10.77;7.43;;;;;;;;;;5071448;28;20048;-72
2023/04/09 02:06:44;;;;;;;7.63;6.20;;;;;;;;;;5071597;28;20040;-71
2023/04/09 02:09:10;;;;;;;8.88;6.00;;;;;;;;;;5072638;28;20036;-72
2023/04/09 02:11:47;;;;;;;8.02;6.07;;;;;;;;;;5071460;28;20438;-72
2023/04/09 02:14:14;;;;;;;7.80;5.65;;;;;;;;;;5070879;28;20484;-72
2023/04/09 02:16:41;;;;;;;8.70;6.00;;;;;;;;;;5071255;28;20087;-72
2023/04/09 02:19:07;;;;;;;;;;;;;;;;;;5073655;28;20036;-72
2023/04/09 02:21:33;;;;;;;9.05;5.80;;;;;;;;;;5083654;28;19923;-72
2023/04/09 02:23:59;;;;;;;6.55;4.72;;;;;;;;;;5091703;28;20074;-72
2023/04/09 02:26:25;;;;;;;6.43;4.60;;;;;;;;;;5089425;28;20040;-72
2023/04/09 02:28:51;;;;;;;7.43;5.18;;;;;;;;;;5079957;28;20048;-71
2023/04/09 02:31:17;;;;;;;5.88;4.40;;;;;;;;;;5081614;28;20058;-71
2023/04/09 02:33:43;;;;;;;7.07;4.65;;;;;;;;;;5074244;28;20132;-71
2023/04/09 02:36:13;;;;;;;10.77;7.60;;;;;;;;;;5087126;28;20075;-72
2023/04/09 02:38:42;;;;;;;9.98;7.00;;;;;;;;;;5086777;28;20048;-71
2023/04/09 02:41:08;;;;;;;9.95;6.70;;;;;;;;;;5089983;28;20048;-71
2023/04/09 02:43:34;;;;;;;;;;;;;;;;;;5086120;28;20040;-71
2023/04/09 02:46:00;;;;;;;8.38;5.70;;;;;;;;;;5073588;28;19920;-71
2023/04/09 02:48:27;;;;;;;10.95;7.53;;;;;;;;;;5057748;28;20068;-71
2023/04/09 02:50:53;;;;;;;14.50;10.45;;;;;;;;;;5090725;28;20089;-71
2023/04/09 02:53:20;;;;;;;12.73;9.38;;;;;;;;;;5071280;28;20078;-71
2023/04/09 02:55:46;;;;;;;18.38;11.77;;;;;;;;;;5054018;28;20040;-71
2023/04/09 02:58:12;;;;;;;15.50;11.32;;;;;;;;;;5087278;28;20048;-70
2023/04/09 03:00:38;;;;;;;12.57;9.35;;;;;;;;;;5074402;28;20040;-70
2023/04/09 03:03:05;;;;;;;18.02;12.48;;;;;;;;;;5090381;28;20127;-71
2023/04/09 03:05:31;;;;;;;15.88;10.30;;;;;;;;;;5090853;28;20040;-70
2023/04/09 03:07:57;;;;;;;18.35;11.82;;;;;;;;;;5089728;28;20085;-70
2023/04/09 03:10:23;;;;;;;16.38;11.40;;;;;;;;;;5070633;28;20053;-70
2023/04/09 03:12:49;;;;;;;13.75;9.15;;;;;;;;;;5070063;28;20579;-69
2023/04/09 03:15:15;;;;;;;;;;;;;;;;;;5070909;28;20449;-70
2023/04/09 03:17:41;;;;;;;17.95;12.68;;;;;;;;;;5069920;28;19920;-69
2023/04/09 03:20:07;;;;;;;15.57;10.45;;;;;;;;;;5069126;28;20586;-70
2023/04/09 03:22:37;;;;;;;15.13;10.63;;;;;;;;;;5088645;28;20081;-70
2023/04/09 03:25:03;;;;;;;13.05;9.07;;;;;;;;;;5090509;28;20036;-69
2023/04/09 03:27:29;;;;;;;11.70;8.20;;;;;;;;;;5089949;28;20047;-70
2023/04/09 03:29:55;;;;;;;10.60;7.32;;;;;;;;;;5090187;28;20051;-70
2023/04/09 03:32:21;;;;;;;;;;;;;;;;;;5090336;28;20522;-70
2023/04/09 03:34:47;;;;;;;17.02;10.85;;;;;;;;;;5091400;28;19920;-70
2023/04/09 03:37:13;;;;;;;16.25;11.43;;;;;;;;;;5068646;28;20509;-70
2023/04/09 03:39:40;;;;;;;17.05;12.23;;;;;;;;;;5069833;28;20040;-70
2023/04/09 03:42:06;;;;;;;15.73;11.77;;;;;;;;;;5069995;28;20044;-70
2023/04/09 03:44:32;;;;;;;20.17;13.30;;;;;;;;;;5069897;28;20456;-71
2023/04/09 03:46:58;;;;;;;15.68;11.07;;;;;;;;;;5069618;28;20379;-71
2023/04/09 03:49:24;;;;;;;16.92;12.35;;;;;;;;;;5069462;28;20047;-70
2023/04/09 03:51:50;;;;;;;15.35;10.13;;;;;;;;;;5069415;28;20052;-71
2023/04/09 03:54:16;;;;;;;15.18;9.85;;;;;;;;;;5069318;28;20052;-69
2023/04/09 03:56:42;;;;;;;13.32;9.90;;;;;;;;;;5068984;28;20494;-69
2023/04/09 03:59:08;;;;;;;13.15;9.77;;;;;;;;;;5069700;28;20048;-69
2023/04/09 04:01:34;;;;;;;14.32;10.38;;;;;;;;;;5069036;28;20098;-69
2023/04/09 04:04:00;;;;;;;12.77;8.85;;;;;;;;;;5069429;28;20047;-69
2023/04/09 04:06:26;;;;;;;11.00;8.23;;;;;;;;;;5082537;28;20050;-70
2023/04/09 04:08:52;;;;;;;9.98;6.75;;;;;;;;;;5083258;28;20076;-70
2023/04/09 04:11:18;;;;;;;11.35;7.43;;;;;;;;;;5069705;28;20048;-70
2023/04/09 04:13:44;;;;;;;13.80;9.13;;;;;;;;;;5064324;28;20455;-70
2023/04/09 04:16:10;;;;;;;12.77;8.70;;;;;;;;;;5059541;28;20048;-70
2023/04/09 04:18:37;;;;;;;13.65;9.18;;;;;;;;;;5084014;28;20050;-70
2023/04/09 04:21:03;;;;;;;;;;;;;;;;;;5080669;28;20079;-70
2023/04/09 04:23:29;;;;;;;17.23;11.25;;;;;;;;;;5064605;28;20441;-70
2023/04/09 04:25:56;;;;;;;12.95;9.13;;;;;;;;;;5074687;28;20099;-70
2023/04/09 04:28:23;;;;;;;17.15;11.32;;;;;;;;;;5052823;28;20044;-70
2023/04/09 04:30:49;;;;;;;17.30;11.88;;;;;;;;;;5088909;28;20097;-70
2023/04/09 04:33:15;;;;;;;14.43;10.38;;;;;;;;;;5086186;28;20051;-70
2023/04/09 04:35:41;;;;;;;12.07;8.57;;;;;;;;;;5052257;28;20174;-70
2023/04/09 04:38:07;;;;;;;12.10;8.85;;;;;;;;;;5069180;28;20432;-70
2023/04/09 04:40:33;;;;;;;13.45;9.55;;;;;;;;;;5073205;28;20036;-70
2023/04/09 04:42:59;;;;;;;9.82;7.30;;;;;;;;;;5076385;28;20128;-70
2023/04/09 04:45:25;;;;;;;9.23;6.45;;;;;;;;;;5080371;28;20561;-70
2023/04/09 04:47:51;;;;;;;11.65;8.43;;;;;;;;;;5072086;28;20479;-70
2023/04/09 04:50:17;;;;;;;11.40;7.70;;;;;;;;;;5089157;28;20051;-70
2023/04/09 04:52:43;;;;;;;11.02;7.72;;;;;;;;;;5081799;28;20089;-70
2023/04/09 04:55:10;;;;;;;13.75;9.73;;;;;;;;;;5054744;28;20044;-71
2023/04/09 04:57:36;;;;;;;10.68;7.82;;;;;;;;;;5074804;28;20514;-71
2023/04/09 05:00:02;;;;;;;10.68;7.13;;;;;;;;;;5051228;28;20503;-71
2023/04/09 05:02:28;;;;;;;8.05;5.80;;;;;;;;;;5071927;28;20051;-71
2023/04/09 05:04:54;;;;;;;10.13;6.88;;;;;;;;;;5062797;28;20048;-71
2023/04/09 05:07:20;;;;;;;13.52;9.50;;;;;;;;;;5051971;28;20056;-70
2023/04/09 05:09:46;;;;;;;15.15;10.65;;;;;;;;;;5083883;28;20040;-71
2023/04/09 05:12:14;;;;;;;15.07;10.93;;;;;;;;;;5068734;28;20119;-70
2023/04/09 05:14:40;;;;;;;13.82;10.45;;;;;;;;;;5058500;28;20055;-71
2023/04/09 05:17:06;;;;;;;13.63;9.93;;;;;;;;;;5088548;28;20044;-71
2023/04/09 05:19:32;;;;;;;14.45;9.95;;;;;;;;;;5073397;28;20455;-70
2023/04/09 05:21:58;;;;;;;12.02;8.45;;;;;;;;;;5067974;28;20050;-69
2023/04/09 05:24:25;;;;;;;13.65;9.20;;;;;;;;;;5068735;28;20079;-70
2023/04/09 05:26:51;;;;;;;19.33;12.93;;;;;;;;;;5055219;28;20049;-70
2023/04/09 05:29:17;;;;;;;21.85;14.68;;;;;;;;;;5051091;28;20032;-70
2023/04/09 05:31:43;;;;;;;21.55;14.07;;;;;;;;;;5057880;28;20506;-71
2023/04/09 05:34:10;;;;;;;23.92;15.82;;;;;;;;;;5065601;28;20070;-70
2023/04/09 05:36:36;;;;;;;20.85;14.85;;;;;;;;;;5067634;28;20044;-70
2023/04/09 05:39:02;;;;;;;23.77;15.88;;;;;;;;;;5055417;28;20040;-71
2023/04/09 05:41:28;;;;;;;23.85;17.40;;;;;;;;;;5066558;28;20495;-70
2023/04/09 05:43:54;;;;;;;27.95;16.90;;;;;;;;;;5063889;28;20388;-70
2023/04/09 05:46:20;;;;;;;21.65;15.43;;;;;;;;;;5075648;28;20059;-70
2023/04/09 05:48:46;;;;;;;18.10;13.20;;;;;;;;;;5082027;28;20063;-70
2023/04/09 05:51:14;;;;;;;15.68;11.35;;;;;;;;;;5064341;28;20052;-70
2023/04/09 05:53:40;;;;;;;23.67;16.23;;;;;;;;;;5079809;28;20053;-70
2023/04/09 05:56:13;;;;;;;23.30;15.93;;;;;;;;;;5090246;28;20052;-70
2023/04/09 05:58:39;;;;;;;20.52;14.80;;;;;;;;;;5091904;28;20036;-71
2023/04/09 06:01:05;;;;;;;16.55;12.18;;;;;;;;;;5091391;28;20055;-71
2023/04/09 06:03:31;;;;;;;14.77;10.73;;;;;;;;;;5092953;28;20052;-71
2023/04/09 06:05:57;;;;;;;15.25;11.13;;;;;;;;;;5091575;28;20044;-71
2023/04/09 06:08:23;;;;;;;17.20;12.05;;;;;;;;;;5091383;28;20078;-71
2023/04/09 06:10:49;;;;;;;17.83;12.55;;;;;;;;;;5091487;28;20070;-69
2023/04/09 06:13:15;;;;;;;15.45;11.10;;;;;;;;;;5088477;28;20045;-71
2023/04/09 06:15:42;;;;;;;16.38;11.35;;;;;;;;;;5078255;28;20048;-70
2023/04/09 06:18:08;;;;;;;16.85;12.05;;;;;;;;;;5079736;28;20046;-71
2023/04/09 06:20:34;;;;;;;19.92;14.32;;;;;;;;;;5079494;28;20052;-71
2023/04/09 06:23:00;;;;;;;24.17;17.13;;;;;;;;;;5081782;28;20124;-71
2023/04/09 06:25:26;;;;;;;23.70;16.13;;;;;;;;;;5086589;28;20134;-71
2023/04/09 06:27:52;;;;;;;21.23;15.50;;;;;;;;;;5081295;28;20119;-71
2023/04/09 06:30:18;;;;;;;20.75;15.35;;;;;;;;;;5082475;28;20048;-71
2023/04/09 06:32:44;;;;;;;18.83;12.68;;;;;;;;;;5079403;28;20049;-72
2023/04/09 06:35:10;;;;;;;18.40;12.68;;;;;;;;;;5080086;28;20112;-71
2023/04/09 06:37:36;;;;;;;19.52;13.43;;;;;;;;;;5063859;28;20182;-71
2023/04/09 06:40:02;;;;;;;20.45;14.18;;;;;;;;;;5060578;28;20102;-71
2023/04/09 06:42:28;;;;;;;17.23;12.65;;;;;;;;;;5075945;28;20044;-71
2023/04/09 06:44:54;;;;;;;18.48;12.55;;;;;;;;;;5077718;28;20062;-71
2023/04/09 06:47:20;;;;;;;20.52;14.02;;;;;;;;;;5076918;28;20055;-71
2023/04/09 06:49:46;;;;;;;19.13;13.57;;;;;;;;;;5058345;28;20036;-69
2023/04/09 06:52:13;;;;;;;21.15;14.65;;;;;;;;;;5079073;28;20048;-71
2023/04/09 06:54:39;;;;;;;17.90;13.00;;;;;;;;;;5076017;28;20170;-71
2023/04/09 06:57:06;;;;;;;19.90;14.80;;;;;;;;;;5074705;28;20089;-71
2023/04/09 06:59:32;;;;;;;24.50;15.90;;;;;;;;;;5079097;28;20115;-70
2023/04/09 07:01:59;;;;;;;19.08;13.10;;;;;;;;;;5057577;28;20582;-71
2023/04/09 07:04:25;;;;;;;16.42;11.65;;;;;;;;;;5077073;28;20063;-70
2023/04/09 07:06:53;;;;;;;16.35;11.63;;;;;;;;;;5084487;28;20052;-71
2023/04/09 07:09:20;;;;;;;19.77;14.05;;;;;;;;;;5076109;28;20137;-71
2023/04/09 07:11:46;;;;;;;20.27;14.05;;;;;;;;;;5086468;28;20048;-70
2023/04/09 07:14:12;;;;;;;24.70;16.60;;;;;;;;;;5078664;28;20426;-71
2023/04/09 07:16:38;;;;;;;21.85;15.85;;;;;;;;;;5059268;28;20048;-71
2023/04/09 07:19:06;;;;;;;19.52;14.13;;;;;;;;;;5056136;28;20145;-71
2023/04/09 07:21:32;;;;;;;19.65;14.05;;;;;;;;;;5079446;28;20055;-71
2023/04/09 07:23:58;;;;;;;19.75;14.32;;;;;;;;;;5071785;28;20123;-72
2023/04/09 07:26:24;;;;;;;19.85;14.27;;;;;;;;;;5074673;28;20046;-72
2023/04/09 07:28:50;;;;;;;21.75;15.13;;;;;;;;;;5071992;28;20040;-72
2023/04/09 07:31:16;;;;;;;24.73;16.45;;;;;;;;;;5077551;28;20122;-71
2023/04/09 07:33:42;;;;;;;16.98;13.13;;;;;;;;;;5078555;28;20376;-71
2023/04/09 07:36:08;;;;;;;23.38;16.75;;;;;;;;;;5073946;28;20535;-71
2023/04/09 07:38:34;;;;;;;21.92;15.50;;;;;;;;;;5058652;28;20135;-71
2023/04/09 07:41:00;;;;;;;23.27;16.75;;;;;;;;;;5059685;28;20044;-71
2023/04/09 07:43:26;;;;;;;26.70;18.58;;;;;;;;;;5077450;28;20035;-71
2023/04/09 07:45:53;;;;;;;28.30;19.20;;;;;;;;;;5074151;28;20752;-71
2023/04/09 07:48:19;;;;;;;28.30;19.73;;;;;;;;;;5074089;28;20454;-71
2023/04/09 07:50:45;;;;;;;25.33;17.52;;;;;;;;;;5076008;28;20036;-71
2023/04/09 07:53:11;;;;;;;29.10;19.48;;;;;;;;;;5064808;28;20047;-70
2023/04/09 07:55:37;;;;;;;28.35;19.65;;;;;;;;;;5071277;28;20495;-71
2023/04/09 07:58:04;;;;;;;28.42;19.52;;;;;;;;;;5056335;28;20079;-70
2023/04/09 08:00:30;;;;;;;30.08;19.88;;;;;;;;;;5076042;28;20056;-70
2023/04/09 08:02:56;;;;;;;27.42;18.73;;;;;;;;;;5080332;28;20041;-70
2023/04/09 08:05:22;;;;;;;23.05;16.00;;;;;;;;;;5084403;28;20037;-70
2023/04/09 08:07:48;;;;;;;;;;;;;;;;;;5072153;28;20058;-70
2023/04/09 08:10:15;;;;;;;23.08;16.10;;;;;;;;;;5080749;28;19920;-70
2023/04/09 08:12:41;;;;;;;24.13;16.30;;;;;;;;;;5086142;28;20514;-70
2023/04/09 08:15:07;;;;;;;20.52;14.13;;;;;;;;;;5088966;28;20060;-70
2023/04/09 08:17:35;;;;;;;30.27;19.55;;;;;;;;;;5087890;28;20040;-70
2023/04/09 08:20:02;;;;;;;30.10;20.15;;;;;;;;;;5068061;28;20123;-70
2023/04/09 08:22:27;;;;;;;;;;;;;;;;;;5081778;28;20081;-70
2023/04/09 08:24:56;;;;;;;25.42;17.75;;;;;;;;;;5053719;28;19920;-70
2023/04/09 08:27:23;;;;;;;27.05;18.42;;;;;;;;;;5084046;28;20395;-70
2023/04/09 08:29:49;;;;;;;25.67;17.67;;;;;;;;;;5071903;28;20369;-70
2023/04/09 08:32:15;;;;;;;23.35;16.25;;;;;;;;;;5068824;28;20033;-70
2023/04/09 08:34:41;;;;;;;20.98;15.73;;;;;;;;;;5075850;28;20044;-69
2023/04/09 08:37:07;;;;;;;26.25;16.92;;;;;;;;;;5074895;28;20067;-69
2023/04/09 08:39:35;;;;;;;27.88;18.55;;;;;;;;;;5076390;28;20088;-70
2023/04/09 08:42:01;;;;;;;29.25;19.95;;;;;;;;;;5075751;28;20040;-69
2023/04/09 08:44:27;;;;;;;;;;;;;;;;;;5082893;28;20032;-70
2023/04/09 08:46:53;;;;;;;24.50;17.13;;;;;;;;;;5071282;28;19924;-70
2023/04/09 08:49:20;;;;;;;26.70;17.67;;;;;;;;;;5068094;28;20037;-71
2023/04/09 08:51:49;;;;;;;23.40;16.88;;;;;;;;;;5077479;28;20180;-71
2023/04/09 08:54:17;;;;;;;25.52;17.80;;;;;;;;;;5071298;28;20380;-71
2023/04/09 08:56:43;;;;;;;24.40;17.08;;;;;;;;;;5073107;28;20494;-70
2023/04/09 08:59:09;;;;;;;22.98;16.45;;;;;;;;;;5077262;28;20040;-71
2023/04/09 09:01:35;;;;;;;24.13;17.20;;;;;;;;;;5076772;28;20041;-70
2023/04/09 09:04:05;;;;;;;26.58;18.50;;;;;;;;;;5076648;28;20040;-71
2023/04/09 09:06:39;;;;;;;24.17;17.52;;;;;;;;;;5077446;28;20350;-70
2023/04/09 09:09:05;;;;;;;22.52;16.38;;;;;;;;;;5081576;28;20559;-70
2023/04/09 09:11:32;;;;;;;22.90;15.98;;;;;;;;;;5073768;28;20133;-70
2023/04/09 09:14:00;;;;;;;21.55;14.90;;;;;;;;;;5074818;28;20123;-67
2023/04/09 09:16:26;;;;;;;25.40;17.80;;;;;;;;;;5078593;28;20181;-70
2023/04/09 09:18:54;;;;;;;24.20;16.83;;;;;;;;;;5071601;28;20077;-70
2023/04/09 09:21:20;;;;;;;20.73;14.90;;;;;;;;;;5081169;28;20127;-70
2023/04/09 09:23:48;;;;;;;;;;;;;;;;;;5082791;28;20046;-70
2023/04/09 09:26:15;;;;;;;21.27;14.70;;;;;;;;;;5089957;28;19920;-70
2023/04/09 09:28:42;;;;;;;19.65;13.73;;;;;;;;;;5085221;28;20147;-70
2023/04/09 09:31:09;;;;;;;20.67;15.07;;;;;;;;;;5079339;28;20043;-70
2023/04/09 09:33:35;;;;;;;21.20;15.27;;;;;;;;;;5070408;28;20487;-70
2023/04/09 09:36:02;;;;;;;16.13;12.95;;;;;;;;;;5087421;28;20043;-70
2023/04/09 09:38:29;;;;;;;24.63;17.25;;;;;;;;;;5080275;28;20072;-70
2023/04/09 09:40:55;;;;;;;23.48;17.42;;;;;;;;;;5082630;28;20356;-70
2023/04/09 09:43:21;;;;;;;22.17;17.08;;;;;;;;;;5080893;28;20160;-70
2023/04/09 09:45:47;;;;;;;24.15;16.98;;;;;;;;;;5075417;28;20118;-70
2023/04/09 09:48:14;;;;;;;25.58;18.38;;;;;;;;;;5069308;28;20385;-70
2023/04/09 09:50:40;;;;;;;26.10;18.88;;;;;;;;;;5076489;28;20052;-69
2023/04/09 09:53:07;;;;;;;25.58;18.33;;;;;;;;;;5071532;28;20071;-70
2023/04/09 09:55:34;;;;;;;25.05;17.85;;;;;;;;;;5067931;28;20048;-70
2023/04/09 09:58:02;;;;;;;22.27;16.25;;;;;;;;;;5071594;28;20084;-70
2023/04/09 10:00:30;;;;;;;22.77;16.63;;;;;;;;;;5073208;28;20122;-70
2023/04/09 10:03:03;;;;;;;20.75;15.20;;;;;;;;;;5085232;28;20063;-70
2023/04/09 10:05:30;;;;;;;19.77;14.75;;;;;;;;;;5071006;28;20040;-70
2023/04/09 10:07:57;;;;;;;22.48;16.63;;;;;;;;;;5070863;28;20041;-72
2023/04/09 10:10:24;;;;;;;21.42;15.77;;;;;;;;;;5074832;28;20119;-72
2023/04/09 10:12:50;;;;;;;17.58;13.80;;;;;;;;;;5073322;28;20052;-73
2023/04/09 10:15:18;;;;;;;19.30;14.10;;;;;;;;;;5074432;28;20043;-73
2023/04/09 10:17:44;;;;;;;19.10;14.85;;;;;;;;;;5058568;28;20047;-73
2023/04/09 10:20:14;;;;;;;21.55;16.17;;;;;;;;;;5080950;28;20107;-73
2023/04/09 10:22:42;;;;;;;19.88;14.65;;;;;;;;;;5088999;28;20043;-74
2023/04/09 10:25:09;;;;;;;20.15;15.23;;;;;;;;;;5076236;28;20036;-75
2023/04/09 10:27:36;;;;;;;18.08;14.15;;;;;;;;;;5071122;28;20487;-73
2023/04/09 10:30:04;;;;;;;18.92;14.30;;;;;;;;;;5078871;28;20426;-73
2023/04/09 10:32:34;;;;;;;18.63;14.00;;;;;;;;;;5073336;28;20052;-72
2023/04/09 10:35:02;;;;;;;20.27;15.65;;;;;;;;;;5079617;28;20075;-72
2023/04/09 10:37:29;;;;;;;20.65;15.27;;;;;;;;;;5079589;28;20548;-73
2023/04/09 10:39:55;;;;;;;;;;;;;;;;;;5082173;28;20028;-72
2023/04/09 10:42:32;;;;;;;17.52;12.98;;;;;;;;;;5074569;28;19927;-73
2023/04/09 10:45:13;;;;;;;15.57;12.10;;;;;;;;;;5053991;28;20075;-73
2023/04/09 10:47:40;;;;;;;23.10;17.23;;;;;;;;;;5059384;28;20123;-72
2023/04/09 10:50:35;;;;;;;20.23;14.95;;;;;;;;;;5076882;28;20071;-72
2023/04/09 10:53:03;;;;;;;20.30;15.63;;;;;;;;;;5078431;28;20044;-73
2023/04/09 10:55:30;;;;;;;17.15;13.68;;;;;;;;;;5069021;28;20116;-73
2023/04/09 10:57:57;;;;;;;21.17;16.02;;;;;;;;;;5059698;28;20036;-74
2023/04/09 11:00:23;;;;;;;18.23;14.48;;;;;;;;;;5052468;28;20072;-73
2023/04/09 11:02:52;;;;;;;16.88;13.65;;;;;;;;;;5069788;28;20056;-73
2023/04/09 11:05:26;;;;;;;16.38;13.13;;;;;;;;;;5075311;28;20052;-73
2023/04/09 11:07:52;;;;;;;18.70;14.60;;;;;;;;;;5055320;28;20045;-73
2023/04/09 11:10:18;;;;;;;;;;;;;;;;;;5081261;28;20046;-73
2023/04/09 11:12:46;;;;;;;17.08;13.30;;;;;;;;;;5068463;28;20050;-73
2023/04/09 11:15:17;;;;;;;18.00;13.32;;;;;;;;;;5073385;28;20067;-74
2023/04/09 11:17:43;;;;;;;18.00;13.25;;;;;;;;;;5072201;28;20076;-74
2023/04/09 11:20:09;;;;;;;18.90;15.25;;;;;;;;;;5075158;28;20131;-73
2023/04/09 11:22:36;;;;;;;18.67;14.15;;;;;;;;;;5052931;28;20817;-73
2023/04/09 11:25:02;;;;;;;;;;;;;;;;;;5074000;28;20044;-73
2023/04/09 11:27:28;;;;;;;16.25;12.88;;;;;;;;;;5073660;28;19992;-74
2023/04/09 11:29:57;;;;;;;15.38;12.50;;;;;;;;;;5085315;28;20044;-73
2023/04/09 11:32:28;;;;;;;17.27;13.27;;;;;;;;;;5082917;28;20071;-75
2023/04/09 11:34:55;;;;;;;17.38;13.63;;;;;;;;;;5073618;28;20029;-74
2023/04/09 11:37:22;;;;;;;18.58;14.30;;;;;;;;;;5081532;28;20047;-74
2023/04/09 11:39:47;;;;;;;;;;;;;;;;;;5053722;28;20037;-74
2023/04/09 11:42:14;;;;;;;19.77;14.77;;;;;;;;;;5072241;28;19943;-74
2023/04/09 11:44:40;;;;;;;20.13;15.65;;;;;;;;;;5075437;28;20459;-74
2023/04/09 11:47:07;;;;;;;;;;;;;;;;;;5079749;28;20407;-75
2023/04/09 11:49:34;;;;;;;19.27;15.38;;;;;;;;;;5074068;28;19920;-75
2023/04/09 11:52:02;;;;;;;17.17;14.25;;;;;;;;;;5080274;28;20040;-75
2023/04/09 11:54:32;;;;;;;20.02;15.20;;;;;;;;;;5076486;28;20039;-74
2023/04/09 11:56:59;;;;;;;19.98;15.63;;;;;;;;;;5067592;28;20663;-74
2023/04/09 11:59:25;;;;;;;19.17;14.52;;;;;;;;;;5068641;28;20076;-74
2023/04/09 12:01:51;;;;;;;17.58;13.77;;;;;;;;;;5054002;28;20432;-74
2023/04/09 12:04:20;;;;;;;20.38;15.05;;;;;;;;;;5070040;28;20076;-74
2023/04/09 12:06:47;;;;;;;16.10;12.98;;;;;;;;;;5072536;28;20068;-74
2023/04/09 12:09:13;;;;;;;17.55;13.77;;;;;;;;;;5053545;28;20055;-74
2023/04/09 12:11:42;;;;;;;18.27;14.13;;;;;;;;;;5075630;28;20044;-74
2023/04/09 12:14:12;;;;;;;17.52;13.45;;;;;;;;;;5060452;28;20060;-73
2023/04/09 12:16:40;;;;;;;14.70;12.20;;;;;;;;;;5068582;28;20040;-73
2023/04/09 12:19:07;;;;;;;16.48;13.80;;;;;;;;;;5062953;28;20436;-74
2023/04/09 12:21:53;;;;;;;15.32;12.35;;;;;;;;;;5073506;28;20111;-74
2023/04/09 12:24:20;;;;;;;16.52;12.82;;;;;;;;;;5079543;28;20153;-73
2023/04/09 12:26:47;;;;;;;15.65;13.00;;;;;;;;;;5069398;28;20515;-74
2023/04/09 12:29:14;;;;;;;13.55;11.00;;;;;;;;;;5070178;28;20036;-74
2023/04/09 12:31:40;;;;;;;13.68;10.73;;;;;;;;;;5069009;28;20044;-74
2023/04/09 12:34:07;;;;;;;11.88;9.80;;;;;;;;;;5068421;28;20048;-74
2023/04/09 12:36:33;;;;;;;;;;;;;;;;;;5070220;28;20040;-74
2023/04/09 12:38:59;;;;;;;17.55;13.00;;;;;;;;;;5068694;28;19927;-74
2023/04/09 12:41:25;;;;;;;;;;;;;;;;;;5071396;28;20036;-73
2023/04/09 12:43:51;;;;;;;13.25;10.88;;;;;;;;;;5081647;28;19924;-73
2023/04/09 12:46:17;;;;;;;;;;;;;;;;;;5078705;28;20375;-73
2023/04/09 12:48:43;;;;;;;12.65;10.90;;;;;;;;;;5070478;28;19917;-73
2023/04/09 12:51:10;;;;;;;13.25;10.38;;;;;;;;;;5077499;28;20047;-73
2023/04/09 12:53:36;;;;;;;13.52;10.75;;;;;;;;;;5073496;28;20049;-74
2023/04/09 12:56:02;;;;;;;;;;;;;;;;;;5056492;28;20040;-74
2023/04/09 12:58:28;;;;;;;12.38;10.70;;;;;;;;;;5072360;28;19974;-73
2023/04/09 13:00:55;;;;;;;14.73;11.63;;;;;;;;;;5081893;28;20047;-74
2023/04/09 13:03:22;;;;;;;14.38;11.20;;;;;;;;;;5076377;28;20079;-74
2023/04/09 13:05:48;;;;;;;13.23;10.88;;;;;;;;;;5081866;28;20071;-74
2023/04/09 13:08:15;;;;;;;15.38;11.98;;;;;;;;;;5075115;28;20109;-74
2023/04/09 13:10:41;;;;;;;13.90;10.85;;;;;;;;;;5072091;28;20127;-73
2023/04/09 13:13:10;;;;;;;15.40;12.20;;;;;;;;;;5074958;28;20070;-74
2023/04/09 13:15:43;;;;;;;14.82;11.07;;;;;;;;;;5075746;28;20091;-73
2023/04/09 13:18:09;;;;;;;14.32;10.70;;;;;;;;;;5074042;28;20071;-74
2023/04/09 13:20:36;;;;;;;;;;;;;;;;;;5079882;28;20057;-73
2023/04/09 13:23:02;;;;;;;12.88;10.50;;;;;;;;;;5083555;28;19923;-74
2023/04/09 13:25:28;;;;;;;14.20;11.48;;;;;;;;;;5080586;28;20131;-74
2023/04/09 13:27:54;;;;;;;12.13;9.27;;;;;;;;;;5077634;28;20082;-74
2023/04/09 13:30:20;;;;;;;;;;;;;;;;;;5077879;28;20056;-74
2023/04/09 13:32:46;;;;;;;13.52;10.50;;;;;;;;;;5079738;28;20015;-75
2023/04/09 13:35:12;;;;;;;13.13;11.00;;;;;;;;;;5077800;28;20044;-74
2023/04/09 13:37:38;;;;;;;13.13;10.75;;;;;;;;;;5075879;28;20047;-74
2023/04/09 13:40:04;;;;;;;;;;;;;;;;;;5077844;28;20044;-74
2023/04/09 13:42:30;;;;;;;13.43;10.57;;;;;;;;;;5075678;28;19920;-74
2023/04/09 13:44:57;;;;;;;;;;;;;;;;;;5069311;28;20041;-74
2023/04/09 13:47:23;;;;;;;12.77;10.70;;;;;;;;;;5068406;28;19924;-74
2023/04/09 13:49:50;;;;;;;16.60;13.05;;;;;;;;;;5073419;28;20455;-73
2023/04/09 13:52:17;;;;;;;13.82;11.43;;;;;;;;;;5076175;28;20074;-73
2023/04/09 13:54:43;;;;;;;15.30;12.00;;;;;;;;;;5084597;28;20361;-74
2023/04/09 13:57:09;;;;;;;;;;;;;;;;;;5075203;28;20040;-74
2023/04/09 13:59:36;;;;;;;15.07;10.80;;;;;;;;;;5074487;28;20433;-74
2023/04/09 14:02:03;;;;;;;11.45;9.00;;;;;;;;;;5071355;28;20041;-75
2023/04/09 14:04:29;;;;;;;;;;;;;;;;;;5074368;28;20044;-74
2023/04/09 14:06:56;;;;;;;13.45;10.43;;;;;;;;;;5057993;28;20421;-74
2023/04/09 14:09:22;;;;;;;12.35;9.45;;;;;;;;;;5076278;28;20058;-74
2023/04/09 14:11:48;;;;;;;;;;;;;;;;;;5077178;28;20093;-75
2023/04/09 14:14:15;;;;;;;12.25;9.65;;;;;;;;;;5074504;28;20007;-74
2023/04/09 14:16:41;;;;;;;12.82;10.18;;;;;;;;;;5074245;28;20036;-73
2023/04/09 14:19:08;;;;;;;;;;;;;;;;;;5078524;28;20044;-74
2023/04/09 14:21:34;;;;;;;;;;;;;;;;;;5073662;28;19921;-73
2023/04/09 14:24:00;;;;;;;13.98;10.73;;;;;;;;;;5077828;28;19931;-74
2023/04/09 14:26:27;;;;;;;14.15;11.85;;;;;;;;;;5075789;28;20104;-74